sensor_id;sensor_type;location;lat;lon;timestamp;P1;durP1;ratioP1;P2;durP2;ratioP2
75152;SDS011;63734;45.218;36.708;2022-10-16T00:00:38;2.47;;;1.70;;
75152;SDS011;63734;45.218;36.708;2022-10-16T00:03:06;4.63;;;2.30;;
75152;SDS011;63734;45.218;36.708;2022-10-16T00:05:32;3.85;;;2.35;;
75152;SDS011;63734;45.218;36.708;2022-10-16T00:08:02;4.00;;;2.58;;
75152;SDS011;63734;45.218;36.708;2022-10-16T00:10:28;5.68;;;2.65;;
75152;SDS011;63734;45.218;36.708;2022-10-16T00:12:54;3.97;;;2.63;;
75152;SDS011;63734;45.218;36.708;2022-10-16T00:15:20;3.88;;;2.58;;
75152;SDS011;63734;45.218;36.708;2022-10-16T00:17:46;2.97;;;2.22;;
75152;SDS011;63734;45.218;36.708;2022-10-16T00:20:12;4.53;;;2.28;;
75152;SDS011;63734;45.218;36.708;2022-10-16T00:22:38;3.47;;;2.15;;
75152;SDS011;63734;45.218;36.708;2022-10-16T00:25:05;4.85;;;2.45;;
75152;SDS011;63734;45.218;36.708;2022-10-16T00:27:31;7.13;;;3.28;;
75152;SDS011;63734;45.218;36.708;2022-10-16T00:29:59;5.38;;;3.53;;
75152;SDS011;63734;45.218;36.708;2022-10-16T00:32:25;4.72;;;2.85;;
75152;SDS011;63734;45.218;36.708;2022-10-16T00:34:50;3.72;;;2.42;;
75152;SDS011;63734;45.218;36.708;2022-10-16T00:37:19;4.13;;;3.20;;
75152;SDS011;63734;45.218;36.708;2022-10-16T00:39:46;5.57;;;2.47;;
75152;SDS011;63734;45.218;36.708;2022-10-16T00:42:15;4.95;;;2.63;;
75152;SDS011;63734;45.218;36.708;2022-10-16T00:47:22;6.22;;;2.67;;
75152;SDS011;63734;45.218;36.708;2022-10-16T00:49:53;5.38;;;3.13;;
75152;SDS011;63734;45.218;36.708;2022-10-16T00:52:25;4.05;;;2.45;;
75152;SDS011;63734;45.218;36.708;2022-10-16T00:54:51;3.05;;;1.98;;
75152;SDS011;63734;45.218;36.708;2022-10-16T00:57:18;3.65;;;2.30;;
75152;SDS011;63734;45.218;36.708;2022-10-16T00:59:45;4.25;;;2.42;;
75152;SDS011;63734;45.218;36.708;2022-10-16T01:02:13;5.78;;;2.60;;
75152;SDS011;63734;45.218;36.708;2022-10-16T01:04:47;3.95;;;2.38;;
75152;SDS011;63734;45.218;36.708;2022-10-16T01:07:20;4.43;;;2.42;;
75152;SDS011;63734;45.218;36.708;2022-10-16T01:10:40;4.18;;;2.42;;
75152;SDS011;63734;45.218;36.708;2022-10-16T01:12:50;3.83;;;2.25;;
75152;SDS011;63734;45.218;36.708;2022-10-16T01:21:06;4.05;;;2.28;;
75152;SDS011;63734;45.218;36.708;2022-10-16T01:23:49;4.95;;;2.20;;
75152;SDS011;63734;45.218;36.708;2022-10-16T01:29:26;2.88;;;2.25;;
75152;SDS011;63734;45.218;36.708;2022-10-16T01:31:59;4.97;;;2.92;;
75152;SDS011;63734;45.218;36.708;2022-10-16T01:34:35;4.22;;;2.33;;
75152;SDS011;63734;45.218;36.708;2022-10-16T01:37:07;3.53;;;2.20;;
75152;SDS011;63734;45.218;36.708;2022-10-16T01:39:39;3.20;;;2.28;;
75152;SDS011;63734;45.218;36.708;2022-10-16T01:44:42;3.88;;;2.17;;
75152;SDS011;63734;45.218;36.708;2022-10-16T01:47:11;3.55;;;1.95;;
75152;SDS011;63734;45.218;36.708;2022-10-16T01:49:39;3.08;;;2.33;;
75152;SDS011;63734;45.218;36.708;2022-10-16T01:52:09;2.50;;;2.10;;
75152;SDS011;63734;45.218;36.708;2022-10-16T01:54:39;7.03;;;2.53;;
75152;SDS011;63734;45.218;36.708;2022-10-16T01:57:08;4.90;;;2.30;;
75152;SDS011;63734;45.218;36.708;2022-10-16T01:59:40;3.05;;;2.03;;
75152;SDS011;63734;45.218;36.708;2022-10-16T02:02:09;3.47;;;2.30;;
75152;SDS011;63734;45.218;36.708;2022-10-16T02:04:39;3.58;;;2.95;;
75152;SDS011;63734;45.218;36.708;2022-10-16T02:07:09;3.97;;;2.65;;
75152;SDS011;63734;45.218;36.708;2022-10-16T02:09:36;4.20;;;2.33;;
75152;SDS011;63734;45.218;36.708;2022-10-16T02:12:13;4.53;;;2.70;;
75152;SDS011;63734;45.218;36.708;2022-10-16T02:17:13;4.63;;;2.28;;
75152;SDS011;63734;45.218;36.708;2022-10-16T02:19:43;3.30;;;2.40;;
75152;SDS011;63734;45.218;36.708;2022-10-16T02:22:12;2.72;;;2.25;;
75152;SDS011;63734;45.218;36.708;2022-10-16T02:29:49;4.28;;;2.47;;
75152;SDS011;63734;45.218;36.708;2022-10-16T02:32:24;3.67;;;2.80;;
75152;SDS011;63734;45.218;36.708;2022-10-16T02:34:56;2.67;;;2.17;;
75152;SDS011;63734;45.218;36.708;2022-10-16T02:37:23;7.30;;;3.10;;
75152;SDS011;63734;45.218;36.708;2022-10-16T02:39:50;3.03;;;2.28;;
75152;SDS011;63734;45.218;36.708;2022-10-16T02:42:17;3.08;;;2.20;;
75152;SDS011;63734;45.218;36.708;2022-10-16T02:44:43;4.53;;;2.40;;
75152;SDS011;63734;45.218;36.708;2022-10-16T02:47:09;2.95;;;2.10;;
75152;SDS011;63734;45.218;36.708;2022-10-16T02:49:35;6.93;;;2.95;;
75152;SDS011;63734;45.218;36.708;2022-10-16T02:52:01;4.38;;;2.72;;
75152;SDS011;63734;45.218;36.708;2022-10-16T02:54:27;3.58;;;2.45;;
75152;SDS011;63734;45.218;36.708;2022-10-16T02:56:53;8.40;;;2.53;;
75152;SDS011;63734;45.218;36.708;2022-10-16T02:59:19;3.60;;;2.47;;
75152;SDS011;63734;45.218;36.708;2022-10-16T03:01:45;2.55;;;1.88;;
75152;SDS011;63734;45.218;36.708;2022-10-16T03:04:11;5.97;;;3.60;;
75152;SDS011;63734;45.218;36.708;2022-10-16T03:06:37;5.85;;;2.53;;
75152;SDS011;63734;45.218;36.708;2022-10-16T03:09:03;3.75;;;2.67;;
75152;SDS011;63734;45.218;36.708;2022-10-16T03:11:28;3.38;;;2.58;;
75152;SDS011;63734;45.218;36.708;2022-10-16T03:13:54;3.25;;;2.50;;
75152;SDS011;63734;45.218;36.708;2022-10-16T03:16:20;3.13;;;2.38;;
75152;SDS011;63734;45.218;36.708;2022-10-16T03:18:49;5.07;;;3.15;;
75152;SDS011;63734;45.218;36.708;2022-10-16T03:21:15;3.22;;;2.50;;
75152;SDS011;63734;45.218;36.708;2022-10-16T03:23:42;3.63;;;2.60;;
75152;SDS011;63734;45.218;36.708;2022-10-16T03:26:07;6.25;;;2.75;;
75152;SDS011;63734;45.218;36.708;2022-10-16T03:28:33;4.90;;;3.17;;
75152;SDS011;63734;45.218;36.708;2022-10-16T03:30:59;4.80;;;3.20;;
75152;SDS011;63734;45.218;36.708;2022-10-16T03:33:25;6.13;;;3.20;;
75152;SDS011;63734;45.218;36.708;2022-10-16T03:35:52;5.15;;;3.47;;
75152;SDS011;63734;45.218;36.708;2022-10-16T03:38:19;4.90;;;2.83;;
75152;SDS011;63734;45.218;36.708;2022-10-16T03:40:46;5.55;;;3.72;;
75152;SDS011;63734;45.218;36.708;2022-10-16T03:43:12;5.07;;;3.38;;
75152;SDS011;63734;45.218;36.708;2022-10-16T03:45:38;3.75;;;3.08;;
75152;SDS011;63734;45.218;36.708;2022-10-16T03:48:05;4.20;;;3.08;;
75152;SDS011;63734;45.218;36.708;2022-10-16T03:50:31;6.82;;;3.13;;
75152;SDS011;63734;45.218;36.708;2022-10-16T03:52:57;4.93;;;2.75;;
75152;SDS011;63734;45.218;36.708;2022-10-16T03:55:23;3.50;;;2.33;;
75152;SDS011;63734;45.218;36.708;2022-10-16T03:57:49;5.30;;;3.20;;
75152;SDS011;63734;45.218;36.708;2022-10-16T04:00:15;3.28;;;2.35;;
75152;SDS011;63734;45.218;36.708;2022-10-16T04:02:41;4.75;;;3.58;;
75152;SDS011;63734;45.218;36.708;2022-10-16T04:05:07;7.63;;;4.10;;
75152;SDS011;63734;45.218;36.708;2022-10-16T04:07:33;6.80;;;4.03;;
75152;SDS011;63734;45.218;36.708;2022-10-16T04:09:59;4.90;;;3.83;;
75152;SDS011;63734;45.218;36.708;2022-10-16T04:12:25;4.72;;;3.55;;
75152;SDS011;63734;45.218;36.708;2022-10-16T04:14:52;4.65;;;3.42;;
75152;SDS011;63734;45.218;36.708;2022-10-16T04:17:18;6.47;;;3.28;;
75152;SDS011;63734;45.218;36.708;2022-10-16T04:19:44;6.20;;;3.75;;
75152;SDS011;63734;45.218;36.708;2022-10-16T04:22:09;4.03;;;3.10;;
75152;SDS011;63734;45.218;36.708;2022-10-16T04:24:35;7.00;;;3.10;;
75152;SDS011;63734;45.218;36.708;2022-10-16T04:27:01;5.28;;;3.03;;
75152;SDS011;63734;45.218;36.708;2022-10-16T04:29:27;5.47;;;3.80;;
75152;SDS011;63734;45.218;36.708;2022-10-16T04:31:53;5.50;;;3.03;;
75152;SDS011;63734;45.218;36.708;2022-10-16T04:34:19;4.80;;;3.30;;
75152;SDS011;63734;45.218;36.708;2022-10-16T04:36:48;5.25;;;3.38;;
75152;SDS011;63734;45.218;36.708;2022-10-16T04:39:15;5.60;;;3.30;;
75152;SDS011;63734;45.218;36.708;2022-10-16T04:41:41;5.82;;;3.45;;
75152;SDS011;63734;45.218;36.708;2022-10-16T04:44:07;5.90;;;3.55;;
75152;SDS011;63734;45.218;36.708;2022-10-16T04:46:33;5.05;;;3.08;;
75152;SDS011;63734;45.218;36.708;2022-10-16T04:48:59;7.82;;;2.88;;
75152;SDS011;63734;45.218;36.708;2022-10-16T04:51:25;5.47;;;2.97;;
75152;SDS011;63734;45.218;36.708;2022-10-16T04:53:53;4.35;;;2.80;;
75152;SDS011;63734;45.218;36.708;2022-10-16T04:56:20;4.30;;;2.80;;
75152;SDS011;63734;45.218;36.708;2022-10-16T04:58:46;4.07;;;2.80;;
75152;SDS011;63734;45.218;36.708;2022-10-16T05:01:13;5.15;;;3.30;;
75152;SDS011;63734;45.218;36.708;2022-10-16T05:03:39;4.60;;;2.85;;
75152;SDS011;63734;45.218;36.708;2022-10-16T05:06:05;4.47;;;3.35;;
75152;SDS011;63734;45.218;36.708;2022-10-16T05:08:32;3.55;;;2.65;;
75152;SDS011;63734;45.218;36.708;2022-10-16T05:10:58;4.30;;;3.35;;
75152;SDS011;63734;45.218;36.708;2022-10-16T05:13:24;6.70;;;3.63;;
75152;SDS011;63734;45.218;36.708;2022-10-16T05:15:50;4.72;;;3.33;;
75152;SDS011;63734;45.218;36.708;2022-10-16T05:18:16;5.50;;;3.65;;
75152;SDS011;63734;45.218;36.708;2022-10-16T05:20:42;4.63;;;3.10;;
75152;SDS011;63734;45.218;36.708;2022-10-16T05:23:08;4.88;;;3.83;;
75152;SDS011;63734;45.218;36.708;2022-10-16T05:25:35;7.78;;;3.55;;
75152;SDS011;63734;45.218;36.708;2022-10-16T05:28:02;5.28;;;2.85;;
75152;SDS011;63734;45.218;36.708;2022-10-16T05:30:28;5.65;;;3.60;;
75152;SDS011;63734;45.218;36.708;2022-10-16T05:32:54;4.38;;;3.08;;
75152;SDS011;63734;45.218;36.708;2022-10-16T05:35:20;9.13;;;3.63;;
75152;SDS011;63734;45.218;36.708;2022-10-16T05:37:47;6.93;;;4.13;;
75152;SDS011;63734;45.218;36.708;2022-10-16T05:40:13;3.40;;;2.35;;
75152;SDS011;63734;45.218;36.708;2022-10-16T05:42:40;4.40;;;3.40;;
75152;SDS011;63734;45.218;36.708;2022-10-16T05:45:06;3.67;;;2.78;;
75152;SDS011;63734;45.218;36.708;2022-10-16T05:47:34;3.50;;;2.85;;
75152;SDS011;63734;45.218;36.708;2022-10-16T05:50:00;3.95;;;3.10;;
75152;SDS011;63734;45.218;36.708;2022-10-16T05:52:27;4.78;;;3.28;;
75152;SDS011;63734;45.218;36.708;2022-10-16T05:54:53;4.70;;;3.10;;
75152;SDS011;63734;45.218;36.708;2022-10-16T05:57:19;5.07;;;2.85;;
75152;SDS011;63734;45.218;36.708;2022-10-16T05:59:46;5.57;;;3.50;;
75152;SDS011;63734;45.218;36.708;2022-10-16T06:02:14;6.15;;;3.08;;
75152;SDS011;63734;45.218;36.708;2022-10-16T06:04:40;6.53;;;3.88;;
75152;SDS011;63734;45.218;36.708;2022-10-16T06:07:07;4.55;;;3.25;;
75152;SDS011;63734;45.218;36.708;2022-10-16T06:09:33;4.35;;;2.20;;
75152;SDS011;63734;45.218;36.708;2022-10-16T06:11:59;3.50;;;2.92;;
75152;SDS011;63734;45.218;36.708;2022-10-16T06:14:28;3.80;;;2.70;;
75152;SDS011;63734;45.218;36.708;2022-10-16T06:16:54;6.82;;;3.60;;
75152;SDS011;63734;45.218;36.708;2022-10-16T06:19:19;5.57;;;3.00;;
75152;SDS011;63734;45.218;36.708;2022-10-16T06:21:45;3.88;;;3.10;;
75152;SDS011;63734;45.218;36.708;2022-10-16T06:24:12;4.10;;;2.40;;
75152;SDS011;63734;45.218;36.708;2022-10-16T06:26:38;4.60;;;2.95;;
75152;SDS011;63734;45.218;36.708;2022-10-16T06:29:04;4.22;;;2.67;;
75152;SDS011;63734;45.218;36.708;2022-10-16T06:31:30;4.70;;;3.28;;
75152;SDS011;63734;45.218;36.708;2022-10-16T06:33:58;12.68;;;3.15;;
75152;SDS011;63734;45.218;36.708;2022-10-16T06:36:24;5.15;;;3.55;;
75152;SDS011;63734;45.218;36.708;2022-10-16T06:38:51;2.78;;;2.53;;
75152;SDS011;63734;45.218;36.708;2022-10-16T06:41:18;4.82;;;3.00;;
75152;SDS011;63734;45.218;36.708;2022-10-16T06:43:46;3.47;;;2.53;;
75152;SDS011;63734;45.218;36.708;2022-10-16T06:46:12;4.03;;;2.65;;
75152;SDS011;63734;45.218;36.708;2022-10-16T06:48:40;5.57;;;3.08;;
75152;SDS011;63734;45.218;36.708;2022-10-16T06:51:10;4.15;;;2.25;;
75152;SDS011;63734;45.218;36.708;2022-10-16T06:53:39;3.05;;;2.70;;
75152;SDS011;63734;45.218;36.708;2022-10-16T06:56:14;4.53;;;2.70;;
75152;SDS011;63734;45.218;36.708;2022-10-16T06:58:40;3.10;;;1.85;;
75152;SDS011;63734;45.218;36.708;2022-10-16T07:01:07;5.60;;;3.28;;
75152;SDS011;63734;45.218;36.708;2022-10-16T07:03:33;5.80;;;3.22;;
75152;SDS011;63734;45.218;36.708;2022-10-16T07:06:05;9.07;;;2.75;;
75152;SDS011;63734;45.218;36.708;2022-10-16T07:08:33;5.15;;;3.03;;
75152;SDS011;63734;45.218;36.708;2022-10-16T07:11:01;3.10;;;2.70;;
75152;SDS011;63734;45.218;36.708;2022-10-16T07:13:35;6.57;;;2.50;;
75152;SDS011;63734;45.218;36.708;2022-10-16T07:16:08;3.67;;;2.95;;
75152;SDS011;63734;45.218;36.708;2022-10-16T07:18:36;2.70;;;2.42;;
75152;SDS011;63734;45.218;36.708;2022-10-16T07:21:19;4.55;;;3.08;;
75152;SDS011;63734;45.218;36.708;2022-10-16T07:23:54;6.32;;;2.83;;
75152;SDS011;63734;45.218;36.708;2022-10-16T07:26:23;3.47;;;2.88;;
75152;SDS011;63734;45.218;36.708;2022-10-16T07:28:49;4.68;;;2.70;;
75152;SDS011;63734;45.218;36.708;2022-10-16T07:31:16;4.05;;;2.88;;
75152;SDS011;63734;45.218;36.708;2022-10-16T07:33:44;4.20;;;2.92;;
75152;SDS011;63734;45.218;36.708;2022-10-16T07:36:13;4.60;;;3.28;;
75152;SDS011;63734;45.218;36.708;2022-10-16T07:38:39;4.50;;;2.85;;
75152;SDS011;63734;45.218;36.708;2022-10-16T07:41:08;3.83;;;2.55;;
75152;SDS011;63734;45.218;36.708;2022-10-16T07:43:39;4.30;;;2.97;;
75152;SDS011;63734;45.218;36.708;2022-10-16T07:46:05;4.68;;;2.90;;
75152;SDS011;63734;45.218;36.708;2022-10-16T07:48:31;7.00;;;2.90;;
75152;SDS011;63734;45.218;36.708;2022-10-16T07:51:02;4.82;;;2.65;;
75152;SDS011;63734;45.218;36.708;2022-10-16T07:53:31;3.65;;;2.65;;
75152;SDS011;63734;45.218;36.708;2022-10-16T07:55:58;7.43;;;3.38;;
75152;SDS011;63734;45.218;36.708;2022-10-16T07:58:25;4.72;;;3.00;;
75152;SDS011;63734;45.218;36.708;2022-10-16T08:00:51;6.53;;;3.53;;
75152;SDS011;63734;45.218;36.708;2022-10-16T08:03:17;3.35;;;2.45;;
75152;SDS011;63734;45.218;36.708;2022-10-16T08:05:43;3.55;;;2.45;;
75152;SDS011;63734;45.218;36.708;2022-10-16T08:08:13;4.50;;;2.80;;
75152;SDS011;63734;45.218;36.708;2022-10-16T08:10:40;4.60;;;3.28;;
75152;SDS011;63734;45.218;36.708;2022-10-16T08:13:06;5.88;;;3.30;;
75152;SDS011;63734;45.218;36.708;2022-10-16T08:15:32;3.78;;;2.10;;
75152;SDS011;63734;45.218;36.708;2022-10-16T08:17:59;3.95;;;2.80;;
75152;SDS011;63734;45.218;36.708;2022-10-16T08:20:30;6.00;;;2.88;;
75152;SDS011;63734;45.218;36.708;2022-10-16T08:22:56;5.53;;;2.60;;
75152;SDS011;63734;45.218;36.708;2022-10-16T08:25:22;6.20;;;3.22;;
75152;SDS011;63734;45.218;36.708;2022-10-16T08:27:49;4.53;;;2.63;;
75152;SDS011;63734;45.218;36.708;2022-10-16T08:30:16;6.35;;;2.95;;
75152;SDS011;63734;45.218;36.708;2022-10-16T08:32:45;3.92;;;2.80;;
75152;SDS011;63734;45.218;36.708;2022-10-16T08:35:11;3.50;;;2.28;;
75152;SDS011;63734;45.218;36.708;2022-10-16T08:37:38;5.85;;;2.67;;
75152;SDS011;63734;45.218;36.708;2022-10-16T08:40:05;3.95;;;2.45;;
75152;SDS011;63734;45.218;36.708;2022-10-16T08:42:42;4.97;;;2.67;;
75152;SDS011;63734;45.218;36.708;2022-10-16T08:45:28;2.72;;;2.42;;
75152;SDS011;63734;45.218;36.708;2022-10-16T08:48:27;4.40;;;2.90;;
75152;SDS011;63734;45.218;36.708;2022-10-16T08:51:28;3.83;;;2.92;;
75152;SDS011;63734;45.218;36.708;2022-10-16T08:53:57;5.53;;;3.00;;
75152;SDS011;63734;45.218;36.708;2022-10-16T08:56:26;5.93;;;2.90;;
75152;SDS011;63734;45.218;36.708;2022-10-16T08:58:52;4.32;;;2.63;;
75152;SDS011;63734;45.218;36.708;2022-10-16T09:01:20;5.25;;;2.90;;
75152;SDS011;63734;45.218;36.708;2022-10-16T09:25:59;8.48;;;4.85;;
75152;SDS011;63734;45.218;36.708;2022-10-16T09:28:25;9.18;;;5.68;;
75152;SDS011;63734;45.218;36.708;2022-10-16T09:30:52;8.13;;;4.32;;
75152;SDS011;63734;45.218;36.708;2022-10-16T09:33:19;6.55;;;4.32;;
75152;SDS011;63734;45.218;36.708;2022-10-16T09:35:50;8.05;;;5.07;;
75152;SDS011;63734;45.218;36.708;2022-10-16T09:38:25;8.48;;;4.47;;
75152;SDS011;63734;45.218;36.708;2022-10-16T09:40:53;8.23;;;4.30;;
75152;SDS011;63734;45.218;36.708;2022-10-16T09:43:25;8.88;;;5.07;;
75152;SDS011;63734;45.218;36.708;2022-10-16T09:46:00;12.50;;;5.07;;
75152;SDS011;63734;45.218;36.708;2022-10-16T09:48:31;5.90;;;3.30;;
75152;SDS011;63734;45.218;36.708;2022-10-16T09:53:38;7.40;;;3.42;;
75152;SDS011;63734;45.218;36.708;2022-10-16T09:56:20;6.05;;;4.00;;
75152;SDS011;63734;45.218;36.708;2022-10-16T09:58:51;6.60;;;4.40;;
75152;SDS011;63734;45.218;36.708;2022-10-16T10:01:19;7.97;;;3.53;;
75152;SDS011;63734;45.218;36.708;2022-10-16T10:03:45;10.05;;;4.15;;
75152;SDS011;63734;45.218;36.708;2022-10-16T10:16:45;5.05;;;3.67;;
75152;SDS011;63734;45.218;36.708;2022-10-16T10:19:37;7.05;;;4.15;;
75152;SDS011;63734;45.218;36.708;2022-10-16T10:46:50;6.05;;;3.97;;
75152;SDS011;63734;45.218;36.708;2022-10-16T10:50:02;7.75;;;3.72;;
75152;SDS011;63734;45.218;36.708;2022-10-16T11:06:39;6.10;;;4.05;;
75152;SDS011;63734;45.218;36.708;2022-10-16T11:08:52;8.65;;;4.68;;
75152;SDS011;63734;45.218;36.708;2022-10-16T11:11:24;5.78;;;3.40;;
75152;SDS011;63734;45.218;36.708;2022-10-16T11:16:35;6.05;;;3.92;;
75152;SDS011;63734;45.218;36.708;2022-10-16T11:22:19;4.32;;;3.40;;
75152;SDS011;63734;45.218;36.708;2022-10-16T11:24:51;8.05;;;4.45;;
75152;SDS011;63734;45.218;36.708;2022-10-16T11:27:39;7.60;;;4.18;;
75152;SDS011;63734;45.218;36.708;2022-10-16T11:30:18;7.97;;;4.78;;
75152;SDS011;63734;45.218;36.708;2022-10-16T11:41:04;7.13;;;5.30;;
75152;SDS011;63734;45.218;36.708;2022-10-16T11:43:49;7.05;;;4.60;;
75152;SDS011;63734;45.218;36.708;2022-10-16T11:46:36;11.90;;;5.35;;
75152;SDS011;63734;45.218;36.708;2022-10-16T11:49:15;8.40;;;4.60;;
75152;SDS011;63734;45.218;36.708;2022-10-16T11:51:59;8.05;;;4.53;;
75152;SDS011;63734;45.218;36.708;2022-10-16T11:54:50;9.68;;;4.85;;
75152;SDS011;63734;45.218;36.708;2022-10-16T11:57:21;5.75;;;4.13;;
75152;SDS011;63734;45.218;36.708;2022-10-16T11:59:57;5.85;;;3.97;;
75152;SDS011;63734;45.218;36.708;2022-10-16T12:10:41;7.22;;;4.95;;
75152;SDS011;63734;45.218;36.708;2022-10-16T12:18:50;7.32;;;4.60;;
75152;SDS011;63734;45.218;36.708;2022-10-16T12:21:35;7.25;;;4.63;;
75152;SDS011;63734;45.218;36.708;2022-10-16T12:24:02;5.22;;;4.15;;
75152;SDS011;63734;45.218;36.708;2022-10-16T12:26:32;5.93;;;3.20;;
75152;SDS011;63734;45.218;36.708;2022-10-16T12:31:47;7.20;;;4.68;;
75152;SDS011;63734;45.218;36.708;2022-10-16T12:34:21;5.32;;;4.18;;
75152;SDS011;63734;45.218;36.708;2022-10-16T12:37:11;9.70;;;4.88;;
75152;SDS011;63734;45.218;36.708;2022-10-16T12:39:50;7.10;;;4.10;;
75152;SDS011;63734;45.218;36.708;2022-10-16T12:42:22;5.93;;;3.85;;
75152;SDS011;63734;45.218;36.708;2022-10-16T12:44:59;6.85;;;4.43;;
75152;SDS011;63734;45.218;36.708;2022-10-16T12:49:58;7.13;;;4.78;;
75152;SDS011;63734;45.218;36.708;2022-10-16T12:54:59;7.65;;;4.90;;
75152;SDS011;63734;45.218;36.708;2022-10-16T13:00:32;9.18;;;5.57;;
75152;SDS011;63734;45.218;36.708;2022-10-16T13:18:19;12.95;;;6.10;;
75152;SDS011;63734;45.218;36.708;2022-10-16T13:29:09;10.02;;;6.60;;
75152;SDS011;63734;45.218;36.708;2022-10-16T13:31:36;7.55;;;5.45;;
75152;SDS011;63734;45.218;36.708;2022-10-16T13:34:04;10.80;;;6.15;;
75152;SDS011;63734;45.218;36.708;2022-10-16T13:36:41;10.52;;;6.25;;
75152;SDS011;63734;45.218;36.708;2022-10-16T13:44:25;6.70;;;4.88;;
75152;SDS011;63734;45.218;36.708;2022-10-16T13:46:58;8.98;;;5.30;;
75152;SDS011;63734;45.218;36.708;2022-10-16T13:49:25;10.77;;;5.38;;
75152;SDS011;63734;45.218;36.708;2022-10-16T13:51:55;6.13;;;4.63;;
75152;SDS011;63734;45.218;36.708;2022-10-16T13:54:25;5.82;;;3.85;;
75152;SDS011;63734;45.218;36.708;2022-10-16T13:56:54;9.80;;;4.90;;
75152;SDS011;63734;45.218;36.708;2022-10-16T13:59:24;7.57;;;5.05;;
75152;SDS011;63734;45.218;36.708;2022-10-16T14:02:00;6.35;;;4.18;;
75152;SDS011;63734;45.218;36.708;2022-10-16T14:04:40;7.57;;;4.18;;
75152;SDS011;63734;45.218;36.708;2022-10-16T14:07:11;8.02;;;3.85;;
75152;SDS011;63734;45.218;36.708;2022-10-16T14:09:40;12.00;;;4.47;;
75152;SDS011;63734;45.218;36.708;2022-10-16T14:12:10;6.75;;;3.83;;
75152;SDS011;63734;45.218;36.708;2022-10-16T14:14:41;7.07;;;3.92;;
75152;SDS011;63734;45.218;36.708;2022-10-16T14:17:19;4.32;;;3.15;;
75152;SDS011;63734;45.218;36.708;2022-10-16T14:19:58;6.80;;;4.15;;
75152;SDS011;63734;45.218;36.708;2022-10-16T14:24:57;8.63;;;4.93;;
75152;SDS011;63734;45.218;36.708;2022-10-16T14:27:26;8.93;;;3.95;;
75152;SDS011;63734;45.218;36.708;2022-10-16T14:30:05;5.95;;;3.63;;
75152;SDS011;63734;45.218;36.708;2022-10-16T14:32:41;8.52;;;3.70;;
75152;SDS011;63734;45.218;36.708;2022-10-16T14:35:28;5.25;;;4.00;;
75152;SDS011;63734;45.218;36.708;2022-10-16T14:37:57;11.05;;;4.10;;
75152;SDS011;63734;45.218;36.708;2022-10-16T14:40:29;7.50;;;3.88;;
75152;SDS011;63734;45.218;36.708;2022-10-16T14:42:58;7.13;;;4.03;;
75152;SDS011;63734;45.218;36.708;2022-10-16T14:45:30;6.93;;;4.88;;
75152;SDS011;63734;45.218;36.708;2022-10-16T14:47:59;9.88;;;5.65;;
75152;SDS011;63734;45.218;36.708;2022-10-16T14:50:28;12.38;;;5.68;;
75152;SDS011;63734;45.218;36.708;2022-10-16T14:52:54;9.48;;;4.80;;
75152;SDS011;63734;45.218;36.708;2022-10-16T14:55:20;11.45;;;4.85;;
75152;SDS011;63734;45.218;36.708;2022-10-16T14:57:47;9.75;;;3.75;;
75152;SDS011;63734;45.218;36.708;2022-10-16T15:00:15;10.68;;;3.50;;
75152;SDS011;63734;45.218;36.708;2022-10-16T15:02:41;7.15;;;3.15;;
75152;SDS011;63734;45.218;36.708;2022-10-16T15:05:23;15.57;;;4.75;;
75152;SDS011;63734;45.218;36.708;2022-10-16T15:07:51;5.40;;;3.10;;
75152;SDS011;63734;45.218;36.708;2022-10-16T15:10:22;10.95;;;5.55;;
75152;SDS011;63734;45.218;36.708;2022-10-16T15:12:51;7.45;;;3.90;;
75152;SDS011;63734;45.218;36.708;2022-10-16T15:17:49;5.22;;;2.65;;
75152;SDS011;63734;45.218;36.708;2022-10-16T15:20:21;6.07;;;2.70;;
75152;SDS011;63734;45.218;36.708;2022-10-16T15:22:48;5.45;;;2.95;;
75152;SDS011;63734;45.218;36.708;2022-10-16T15:25:26;2.60;;;1.83;;
75152;SDS011;63734;45.218;36.708;2022-10-16T15:27:56;5.07;;;2.72;;
75152;SDS011;63734;45.218;36.708;2022-10-16T15:30:22;5.47;;;2.33;;
75152;SDS011;63734;45.218;36.708;2022-10-16T15:32:48;3.38;;;2.13;;
75152;SDS011;63734;45.218;36.708;2022-10-16T15:35:14;4.25;;;2.88;;
75152;SDS011;63734;45.218;36.708;2022-10-16T15:37:40;5.82;;;2.95;;
75152;SDS011;63734;45.218;36.708;2022-10-16T15:40:07;10.10;;;3.38;;
75152;SDS011;63734;45.218;36.708;2022-10-16T15:42:34;5.78;;;2.72;;
75152;SDS011;63734;45.218;36.708;2022-10-16T15:45:00;5.00;;;2.10;;
75152;SDS011;63734;45.218;36.708;2022-10-16T15:47:26;5.68;;;2.20;;
75152;SDS011;63734;45.218;36.708;2022-10-16T15:49:53;3.35;;;2.20;;
75152;SDS011;63734;45.218;36.708;2022-10-16T15:52:20;6.75;;;3.40;;
75152;SDS011;63734;45.218;36.708;2022-10-16T15:54:46;5.07;;;2.40;;
75152;SDS011;63734;45.218;36.708;2022-10-16T15:57:12;4.47;;;2.60;;
75152;SDS011;63734;45.218;36.708;2022-10-16T15:59:38;2.90;;;2.15;;
75152;SDS011;63734;45.218;36.708;2022-10-16T16:02:04;4.20;;;2.50;;
75152;SDS011;63734;45.218;36.708;2022-10-16T16:04:30;6.15;;;2.63;;
75152;SDS011;63734;45.218;36.708;2022-10-16T16:06:56;4.93;;;2.90;;
75152;SDS011;63734;45.218;36.708;2022-10-16T16:09:22;4.10;;;2.38;;
75152;SDS011;63734;45.218;36.708;2022-10-16T16:11:48;7.28;;;3.10;;
75152;SDS011;63734;45.218;36.708;2022-10-16T16:14:16;5.07;;;2.40;;
75152;SDS011;63734;45.218;36.708;2022-10-16T16:16:42;5.50;;;2.95;;
75152;SDS011;63734;45.218;36.708;2022-10-16T16:19:08;3.22;;;2.35;;
75152;SDS011;63734;45.218;36.708;2022-10-16T16:21:34;4.93;;;2.38;;
75152;SDS011;63734;45.218;36.708;2022-10-16T16:24:01;2.92;;;1.90;;
75152;SDS011;63734;45.218;36.708;2022-10-16T16:26:33;3.70;;;2.10;;
75152;SDS011;63734;45.218;36.708;2022-10-16T16:29:02;4.18;;;2.50;;
75152;SDS011;63734;45.218;36.708;2022-10-16T16:31:29;4.75;;;2.30;;
75152;SDS011;63734;45.218;36.708;2022-10-16T16:33:56;4.40;;;1.95;;
75152;SDS011;63734;45.218;36.708;2022-10-16T16:36:23;3.58;;;2.47;;
75152;SDS011;63734;45.218;36.708;2022-10-16T16:38:50;4.15;;;2.45;;
75152;SDS011;63734;45.218;36.708;2022-10-16T16:41:18;7.30;;;2.92;;
75152;SDS011;63734;45.218;36.708;2022-10-16T16:43:45;4.60;;;2.78;;
75152;SDS011;63734;45.218;36.708;2022-10-16T16:46:13;4.60;;;3.10;;
75152;SDS011;63734;45.218;36.708;2022-10-16T16:48:41;5.47;;;3.03;;
75152;SDS011;63734;45.218;36.708;2022-10-16T16:51:08;4.25;;;3.10;;
75152;SDS011;63734;45.218;36.708;2022-10-16T16:53:43;4.40;;;3.35;;
75152;SDS011;63734;45.218;36.708;2022-10-16T16:56:11;8.15;;;3.15;;
75152;SDS011;63734;45.218;36.708;2022-10-16T16:58:37;6.78;;;3.22;;
75152;SDS011;63734;45.218;36.708;2022-10-16T17:01:03;6.28;;;3.65;;
75152;SDS011;63734;45.218;36.708;2022-10-16T17:03:33;6.15;;;3.67;;
75152;SDS011;63734;45.218;36.708;2022-10-16T17:06:01;6.22;;;3.15;;
75152;SDS011;63734;45.218;36.708;2022-10-16T17:08:31;6.95;;;3.63;;
75152;SDS011;63734;45.218;36.708;2022-10-16T17:10:59;5.75;;;4.00;;
75152;SDS011;63734;45.218;36.708;2022-10-16T17:13:26;12.48;;;4.85;;
75152;SDS011;63734;45.218;36.708;2022-10-16T17:15:54;8.10;;;4.45;;
75152;SDS011;63734;45.218;36.708;2022-10-16T17:18:21;14.23;;;5.13;;
75152;SDS011;63734;45.218;36.708;2022-10-16T17:20:49;8.95;;;4.45;;
75152;SDS011;63734;45.218;36.708;2022-10-16T17:23:16;10.02;;;4.53;;
75152;SDS011;63734;45.218;36.708;2022-10-16T17:25:44;11.27;;;4.03;;
75152;SDS011;63734;45.218;36.708;2022-10-16T17:28:11;9.70;;;4.88;;
75152;SDS011;63734;45.218;36.708;2022-10-16T17:30:39;10.07;;;3.83;;
75152;SDS011;63734;45.218;36.708;2022-10-16T17:33:07;4.90;;;3.55;;